Time;durP1;ratioP1;P1;durP2;ratioP2;P2;SDS_P1;SDS_P2;PMS_P1;PMS_P2;Temp;Humidity;BMP_temperature;BMP_pressure;BME280_temperature;BME280_humidity;BME280_pressure;Samples;Min_cycle;Max_cycle;Signal;HPM_P1;HPM_P2
2022/12/02 00:02:30;;;;;;;36.05;18.33;;;;;;;2.53;100.00;102894.13;5035621;28;20326;-81
2022/12/02 00:05:02;;;;;;;31.63;17.30;;;;;;;2.54;100.00;102903.75;5071569;28;20048;-81
2022/12/02 00:07:32;;;;;;;35.17;19.17;;;;;;;2.53;100.00;102901.94;5055533;28;20052;-81
2022/12/02 00:10:27;;;;;;;37.90;18.90;;;;;;;2.50;100.00;102899.16;5072304;28;20068;-81
2022/12/02 00:13:07;;;;;;;39.90;19.33;;;;;;;2.47;100.00;102899.81;5081587;28;20485;-81
2022/12/02 00:15:44;;;;;;;40.15;20.38;;;;;;;2.44;100.00;102894.44;5089025;28;20052;-81
2022/12/02 00:18:14;;;;;;;37.70;19.40;;;;;;;2.45;100.00;102895.31;5042572;28;20052;-80
2022/12/02 00:20:43;;;;;;;;;;;;;;;2.45;100.00;102887.50;5073468;28;20041;-81
2022/12/02 00:23:14;;;;;;;38.08;18.13;;;;;;;2.45;100.00;102891.00;5054757;28;20284;-80
2022/12/02 00:25:47;;;;;;;38.03;20.05;;;;;;;2.43;100.00;102887.41;5057604;28;20048;-81
2022/12/02 00:28:16;;;;;;;37.97;19.77;;;;;;;2.43;100.00;102884.78;5042188;28;20067;-80
2022/12/02 00:30:45;;;;;;;42.15;20.55;;;;;;;2.41;100.00;102881.19;5041677;28;20053;-81
2022/12/02 00:33:14;;;;;;;36.75;19.90;;;;;;;2.41;100.00;102888.09;5039113;28;20052;-80
2022/12/02 00:35:43;;;;;;;50.35;21.77;;;;;;;2.40;100.00;102894.09;5074973;28;20049;-82
2022/12/02 00:38:12;;;;;;;39.45;19.40;;;;;;;2.40;100.00;102895.00;5070098;28;20397;-80
2022/12/02 00:40:40;;;;;;;41.58;20.33;;;;;;;2.40;100.00;102894.09;5057184;28;20052;-81
2022/12/02 00:48:45;;;;;;;49.58;21.75;;;;;;;2.34;100.00;102887.69;5050313;28;20037;-80
2022/12/02 00:51:13;;;;;;;42.67;21.00;;;;;;;2.30;100.00;102877.84;5072826;28;20405;-80
2022/12/02 00:53:42;;;;;;;44.92;21.52;;;;;;;2.30;100.00;102869.13;5081761;28;20052;-81
2022/12/02 00:56:10;;;;;;;41.78;19.98;;;;;;;2.30;100.00;102874.34;5066666;28;20037;-81
2022/12/02 00:58:39;;;;;;;47.63;22.98;;;;;;;2.28;100.00;102873.34;5059850;28;20044;-81
2022/12/02 01:01:07;;;;;;;44.97;21.60;;;;;;;2.30;100.00;102869.13;5072714;28;20051;-80
2022/12/02 01:03:37;;;;;;;49.27;22.10;;;;;;;2.32;100.00;102855.41;5071507;28;20771;-81
2022/12/02 01:06:13;;;;;;;46.65;22.13;;;;;;;2.32;100.00;102872.75;5022158;28;20291;-81
2022/12/02 01:08:42;;;;;;;44.72;22.08;;;;;;;2.31;100.00;102866.66;5073247;28;20070;-81
2022/12/02 01:11:12;;;;;;;44.15;21.15;;;;;;;2.30;100.00;102875.22;5043949;28;20045;-81
2022/12/02 01:13:42;;;;;;;;;;;;;;;2.28;100.00;102866.41;5050510;28;20044;-80
2022/12/02 01:16:10;;;;;;;44.00;21.75;;;;;;;2.28;100.00;102869.03;5069291;28;19925;-80
2022/12/02 01:18:39;;;;;;;46.45;20.75;;;;;;;2.30;100.00;102872.63;5072793;28;20053;-82
2022/12/02 01:21:07;;;;;;;47.33;20.90;;;;;;;2.31;100.00;102877.06;5043103;28;20048;-82
2022/12/02 01:23:36;;;;;;;49.90;21.52;;;;;;;2.32;100.00;102867.53;5062114;28;20130;-79
2022/12/02 01:26:05;;;;;;;47.28;22.45;;;;;;;2.34;100.00;102874.69;5048051;28;20029;-79
2022/12/02 01:28:34;;;;;;;44.10;21.58;;;;;;;2.37;100.00;102879.19;5072505;28;20067;-82
2022/12/02 01:31:02;;;;;;;47.90;22.83;;;;;;;2.35;100.00;102859.97;5052501;28;20037;-80
2022/12/02 01:33:31;;;;;;;50.63;23.73;;;;;;;2.36;100.00;102851.34;5061235;28;20071;-81
2022/12/02 01:35:59;;;;;;;51.33;23.35;;;;;;;2.36;100.00;102860.84;5027384;28;20041;-81
2022/12/02 01:38:28;;;;;;;46.97;23.02;;;;;;;2.34;100.00;102851.25;5068862;28;20691;-80
2022/12/02 01:40:56;;;;;;;49.88;22.75;;;;;;;2.35;100.00;102852.16;5059992;28;20048;-81
2022/12/02 01:43:26;;;;;;;46.13;22.45;;;;;;;2.33;100.00;102852.03;5051959;28;20041;-82
2022/12/02 01:45:57;;;;;;;47.08;23.10;;;;;;;2.30;100.00;102846.63;5058975;28;20049;-81
2022/12/02 01:48:28;;;;;;;44.67;23.23;;;;;;;2.31;100.00;102847.53;5073952;28;20048;-81
2022/12/02 01:50:58;;;;;;;46.38;23.58;;;;;;;2.32;100.00;102850.22;5075788;28;20056;-82
2022/12/02 01:53:27;;;;;;;44.58;22.33;;;;;;;2.32;100.00;102854.53;5073909;28;20036;-81
2022/12/02 01:55:56;;;;;;;47.47;22.35;;;;;;;2.30;100.00;102850.94;5064437;28;20454;-82
2022/12/02 01:58:28;;;;;;;43.45;22.75;;;;;;;2.28;100.00;102853.41;5041654;28;20044;-81
2022/12/02 02:00:57;;;;;;;41.03;21.35;;;;;;;2.29;100.00;102855.22;5053999;28;20049;-82
2022/12/02 02:03:26;;;;;;;37.85;19.88;;;;;;;2.29;100.00;102855.22;5070206;28;20041;-79
2022/12/02 02:05:55;;;;;;;33.85;18.55;;;;;;;2.28;100.00;102852.53;5060577;28;20056;-81
2022/12/02 02:08:23;;;;;;;34.25;17.45;;;;;;;2.27;100.00;102850.69;5060983;28;20052;-79
2022/12/02 02:10:52;;;;;;;28.08;16.30;;;;;;;2.24;100.00;102853.13;5078260;28;20041;-82
2022/12/02 02:13:21;;;;;;;30.95;16.75;;;;;;;2.23;100.00;102848.69;5040034;28;20493;-82
2022/12/02 02:15:49;;;;;;;33.72;18.02;;;;;;;2.24;100.00;102855.72;5060358;28;21476;-81
2022/12/02 02:18:18;;;;;;;36.45;18.00;;;;;;;2.24;100.00;102837.50;5053797;28;20047;-80
2022/12/02 02:20:48;;;;;;;30.00;17.05;;;;;;;2.24;100.00;102845.31;5040223;28;20252;-80
2022/12/02 02:23:24;;;;;;;32.45;17.55;;;;;;;2.25;100.00;102841.88;5072279;28;20052;-80
2022/12/02 02:25:57;;;;;;;28.50;16.67;;;;;;;2.26;100.00;102838.50;5060932;28;20060;-81
2022/12/02 02:28:33;;;;;;;35.15;17.42;;;;;;;2.26;100.00;102835.91;5061596;28;20059;-80
2022/12/02 02:31:03;;;;;;;34.67;17.98;;;;;;;2.23;100.00;102841.81;5054566;28;20055;-80
2022/12/02 02:33:38;;;;;;;30.83;16.77;;;;;;;2.22;100.00;102837.38;5088205;28;20041;-80
2022/12/02 02:36:08;;;;;;;34.22;18.48;;;;;;;2.23;100.00;102839.22;5073295;28;20056;-81
2022/12/02 02:38:37;;;;;;;37.08;18.30;;;;;;;2.24;100.00;102835.78;5068268;28;20037;-80
2022/12/02 02:41:08;;;;;;;35.88;19.27;;;;;;;2.24;100.00;102835.78;5069456;28;20036;-80
2022/12/02 02:43:37;;;;;;;35.60;17.15;;;;;;;2.24;100.00;102830.59;5044535;28;20049;-80
2022/12/02 02:46:08;;;;;;;32.63;16.58;;;;;;;2.23;100.00;102830.47;5050625;28;20040;-80
2022/12/02 02:48:41;;;;;;;32.53;16.48;;;;;;;2.23;100.00;102830.47;5029363;28;20408;-80
2022/12/02 02:51:11;;;;;;;34.25;18.38;;;;;;;2.24;100.00;102830.59;5051168;28;20044;-81
2022/12/02 02:53:40;;;;;;;38.17;18.23;;;;;;;2.28;100.00;102818.69;5038554;28;20513;-81
2022/12/02 02:56:10;;;;;;;34.45;17.88;;;;;;;2.28;100.00;102821.31;5041441;28;20045;-81
2022/12/02 02:58:39;;;;;;;27.98;14.95;;;;;;;2.29;100.00;102824.00;5065048;28;20041;-80
2022/12/02 03:01:20;;;;;;;36.45;18.10;;;;;;;2.29;100.00;102817.91;5043316;28;20502;-82
2022/12/02 03:03:55;;;;;;;38.28;18.02;;;;;;;2.28;100.00;102816.09;5048088;28;20044;-80
2022/12/02 03:06:27;;;;;;;34.40;17.98;;;;;;;2.30;100.00;102814.50;5069725;28;20075;-80
2022/12/02 03:09:09;;;;;;;40.05;19.42;;;;;;;2.31;100.00;102817.22;5053683;28;20048;-81
2022/12/02 03:11:42;;;;;;;39.65;19.55;;;;;;;2.32;100.00;102819.00;5053890;28;20052;-80
2022/12/02 03:14:12;;;;;;;39.25;18.90;;;;;;;2.31;100.00;102814.63;5042711;28;20049;-81
2022/12/02 03:16:44;;;;;;;42.25;20.77;;;;;;;2.32;100.00;102819.00;5040905;28;20040;-80
2022/12/02 03:19:13;;;;;;;42.25;21.27;;;;;;;2.31;100.00;102814.63;5064682;28;20044;-81
2022/12/02 03:21:43;;;;;;;42.85;21.42;;;;;;;2.31;100.00;102814.63;5056982;28;20036;-82
2022/12/02 03:24:12;;;;;;;44.35;19.98;;;;;;;2.27;100.00;102804.81;5038948;28;20056;-82
2022/12/02 03:26:41;;;;;;;43.10;20.67;;;;;;;2.28;100.00;102810.91;5069823;28;20506;-82
2022/12/02 03:29:11;;;;;;;47.97;21.83;;;;;;;2.25;100.00;102803.78;5069215;28;20523;-82
2022/12/02 03:31:41;;;;;;;46.45;22.13;;;;;;;2.24;100.00;102801.97;5046084;28;20048;-81
2022/12/02 03:34:10;;;;;;;44.50;19.80;;;;;;;2.25;100.00;102802.88;5044321;28;20405;-81
2022/12/02 03:36:39;;;;;;;43.97;21.35;;;;;;;2.21;100.00;102793.06;5070252;28;20056;-80
2022/12/02 03:39:09;;;;;;;46.10;22.05;;;;;;;2.22;100.00;102798.38;5056776;28;20048;-81
2022/12/02 03:41:38;;;;;;;52.17;22.83;;;;;;;2.24;100.00;102798.47;5072296;28;20037;-82
2022/12/02 03:44:07;;;;;;;43.88;21.33;;;;;;;2.24;100.00;102801.97;5074297;28;20045;-81
2022/12/02 03:46:36;;;;;;;45.25;21.98;;;;;;;2.24;100.00;102803.69;5061881;28;20047;-81
2022/12/02 03:49:05;;;;;;;49.15;22.25;;;;;;;2.24;100.00;102801.97;5052726;28;20148;-80
2022/12/02 03:51:34;;;;;;;50.47;21.70;;;;;;;2.22;100.00;102795.78;5069453;28;20408;-82
2022/12/02 03:54:03;;;;;;;47.38;22.27;;;;;;;2.18;100.00;102796.38;5062426;28;21061;-82
2022/12/02 03:56:40;;;;;;;56.00;22.85;;;;;;;2.15;100.00;102803.94;5069767;28;20055;-80
2022/12/02 03:59:11;;;;;;;52.72;23.25;;;;;;;2.14;100.00;102805.66;5091280;28;20055;-80
2022/12/02 04:01:39;;;;;;;48.20;22.30;;;;;;;2.16;100.00;102803.16;5039045;28;20064;-82
2022/12/02 04:04:08;;;;;;;46.15;21.60;;;;;;;2.16;100.00;102797.97;5062460;28;20037;-82
2022/12/02 04:06:37;;;;;;;49.40;21.50;;;;;;;2.13;100.00;102796.03;5056569;28;20037;-80
2022/12/02 04:09:05;;;;;;;49.38;22.30;;;;;;;2.13;100.00;102801.22;5029207;28;20059;-82
2022/12/02 04:11:34;;;;;;;53.15;22.98;;;;;;;2.12;100.00;102799.44;5041482;28;20040;-82
2022/12/02 04:14:02;;;;;;;50.00;22.08;;;;;;;2.12;100.00;102791.63;5067646;28;20044;-81
2022/12/02 04:16:31;;;;;;;48.72;22.33;;;;;;;2.16;100.00;102790.16;5072296;28;20071;-81
2022/12/02 04:19:00;;;;;;;52.47;22.98;;;;;;;2.18;100.00;102798.06;5025365;28;20036;-82
2022/12/02 04:21:28;;;;;;;51.45;23.33;;;;;;;2.19;100.00;102792.06;5050766;28;20029;-82
2022/12/02 04:23:57;;;;;;;52.05;25.00;;;;;;;2.18;100.00;102791.16;5064671;28;20044;-80
2022/12/02 04:26:26;;;;;;;48.00;24.27;;;;;;;2.19;100.00;102782.53;5043533;28;20052;-80
2022/12/02 04:28:54;;;;;;;55.88;24.02;;;;;;;2.21;100.00;102782.66;5068954;28;20047;-81
2022/12/02 04:31:24;;;;;;;46.38;21.80;;;;;;;2.22;100.00;102774.97;5054290;28;20056;-80
2022/12/02 04:33:52;;;;;;;58.00;24.70;;;;;;;2.22;100.00;102777.56;5032441;28;20062;-80
2022/12/02 04:36:21;;;;;;;51.05;22.50;;;;;;;2.22;100.00;102772.34;5042042;28;20045;-80
2022/12/02 04:38:49;;;;;;;53.70;24.15;;;;;;;2.24;100.00;102772.47;5069330;28;20044;-80
2022/12/02 04:41:18;;;;;;;56.30;24.13;;;;;;;2.23;100.00;102762.84;5053627;28;20040;-80
2022/12/02 04:43:46;;;;;;;54.75;23.90;;;;;;;2.22;100.00;102761.94;5044024;28;20060;-79
2022/12/02 04:46:14;;;;;;;51.40;23.70;;;;;;;2.21;100.00;102759.25;5073147;28;20397;-80
2022/12/02 04:48:43;;;;;;;61.53;24.95;;;;;;;2.18;100.00;102759.06;5031936;28;20045;-79
2022/12/02 04:51:11;;;;;;;62.60;24.65;;;;;;;2.17;100.00;102763.31;5029500;28;20044;-83
2022/12/02 04:53:41;;;;;;;55.45;23.95;;;;;;;2.20;100.00;102760.06;5020542;28;20053;-81
2022/12/02 04:56:10;;;;;;;52.67;23.17;;;;;;;2.21;100.00;102761.84;5055634;28;20059;-81
2022/12/02 04:58:38;;;;;;;54.92;25.38;;;;;;;2.21;100.00;102764.44;5051103;28;20299;-81
2022/12/02 05:01:07;;;;;;;57.88;23.88;;;;;;;2.19;100.00;102753.03;5042977;28;20028;-81
2022/12/02 05:03:35;;;;;;;60.78;24.60;;;;;;;2.20;100.00;102768.75;5053651;28;20051;-82
2022/12/02 05:06:04;;;;;;;53.33;23.48;;;;;;;2.20;100.00;102762.66;5029865;28;20045;-81
2022/12/02 05:08:32;;;;;;;57.75;24.70;;;;;;;2.23;100.00;102762.84;5059089;28;20048;-81
2022/12/02 05:11:01;;;;;;;55.42;24.55;;;;;;;2.23;100.00;102745.56;5061714;28;20032;-80
2022/12/02 05:13:30;;;;;;;55.53;23.85;;;;;;;2.26;100.00;102757.88;5066731;28;20682;-81
2022/12/02 05:15:58;;;;;;;56.70;23.98;;;;;;;2.25;100.00;102746.56;5052170;28;20045;-80
2022/12/02 05:18:27;;;;;;;51.03;24.27;;;;;;;2.26;100.00;102740.53;5054289;28;20044;-80
2022/12/02 05:20:55;;;;;;;59.00;24.30;;;;;;;2.27;100.00;102739.75;5044840;28;20044;-80
2022/12/02 05:23:24;;;;;;;55.20;24.10;;;;;;;2.27;100.00;102739.75;5078017;28;20035;-80
2022/12/02 05:25:52;;;;;;;57.80;25.35;;;;;;;2.30;100.00;102739.06;5050555;28;20524;-80
2022/12/02 05:28:21;;;;;;;57.95;25.60;;;;;;;2.30;100.00;102736.44;5030346;28;20048;-80
2022/12/02 05:30:49;;;;;;;55.97;25.05;;;;;;;2.30;100.00;102733.84;5075349;28;20056;-81
2022/12/02 05:33:18;;;;;;;52.63;23.90;;;;;;;2.30;100.00;102729.53;5069117;28;20072;-81
2022/12/02 05:35:46;;;;;;;54.90;24.13;;;;;;;2.31;100.00;102735.66;5052427;28;20037;-82
2022/12/02 05:38:14;;;;;;;52.08;24.05;;;;;;;2.30;100.00;102736.44;5042852;28;20056;-81
2022/12/02 05:40:43;;;;;;;62.55;25.88;;;;;;;2.30;100.00;102732.13;5060850;28;20036;-82
2022/12/02 05:43:20;;;;;;;55.35;24.45;;;;;;;2.31;100.00;102731.34;5027533;28;20058;-80
2022/12/02 05:45:49;;;;;;;56.67;25.08;;;;;;;2.30;100.00;102734.75;5068176;28;20047;-81
2022/12/02 05:48:18;;;;;;;56.30;23.90;;;;;;;2.30;100.00;102734.75;5081742;28;20048;-81
2022/12/02 05:50:46;;;;;;;57.75;24.95;;;;;;;2.30;100.00;102734.75;5056116;28;20044;-81
2022/12/02 05:53:23;;;;;;;58.22;24.63;;;;;;;2.32;100.00;102730.53;5062240;28;20051;-81
2022/12/02 05:55:53;;;;;;;53.15;23.90;;;;;;;2.34;100.00;102734.19;5056628;28;20032;-81
2022/12/02 05:58:25;;;;;;;60.75;25.33;;;;;;;2.34;100.00;102731.56;5050582;28;20052;-82
2022/12/02 06:00:58;;;;;;;58.03;24.17;;;;;;;2.34;100.00;102728.97;5049664;28;20051;-80
2022/12/02 06:03:26;;;;;;;60.03;26.20;;;;;;;2.32;100.00;102734.84;5058209;28;20056;-79
2022/12/02 06:05:56;;;;;;;60.38;24.95;;;;;;;2.32;100.00;102737.44;5038498;28;20032;-81
2022/12/02 06:08:31;;;;;;;60.00;25.98;;;;;;;2.33;100.00;102737.56;5081870;28;20049;-82
2022/12/02 06:11:34;;;;;;;55.63;24.17;;;;;;;2.33;100.00;102736.66;5051084;28;20044;-79
2022/12/02 06:14:24;;;;;;;57.05;24.08;;;;;;;2.31;100.00;102733.06;5058020;28;20041;-79
2022/12/02 06:16:58;;;;;;;56.90;25.08;;;;;;;2.31;100.00;102744.38;5048266;28;20045;-80
2022/12/02 06:19:53;;;;;;;55.63;24.65;;;;;;;2.31;100.00;102749.56;5086148;28;20481;-81
2022/12/02 06:22:26;;;;;;;54.35;24.42;;;;;;;2.31;100.00;102748.69;5052911;28;20037;-80
2022/12/02 06:24:58;;;;;;;60.72;25.65;;;;;;;2.29;100.00;102752.88;5041938;28;20041;-80
2022/12/02 06:27:28;;;;;;;52.03;25.40;;;;;;;2.29;100.00;102751.16;5070816;28;20036;-79
2022/12/02 06:30:03;;;;;;;44.97;19.77;;;;;;;2.27;100.00;102747.56;5060079;28;20064;-78
2022/12/02 06:32:39;;;;;;;55.10;23.83;;;;;;;2.24;100.00;102752.53;5058346;28;20305;-81
2022/12/02 06:35:25;;;;;;;57.03;23.42;;;;;;;2.24;100.00;102756.84;5062508;28;20052;-80
2022/12/02 06:37:56;;;;;;;57.85;25.70;;;;;;;2.22;100.00;102753.25;5053642;28;20037;-80
2022/12/02 06:40:29;;;;;;;58.15;25.27;;;;;;;2.21;100.00;102760.16;5064745;28;20060;-80
2022/12/02 06:43:01;;;;;;;59.38;23.92;;;;;;;2.21;100.00;102761.84;5060197;28;20048;-80
2022/12/02 06:45:31;;;;;;;56.60;25.05;;;;;;;2.20;100.00;102755.75;5047557;28;20059;-80
2022/12/02 06:48:26;;;;;;;47.10;23.10;;;;;;;2.19;100.00;102759.13;5069411;28;20048;-81
2022/12/02 06:50:58;;;;;;;60.08;25.13;;;;;;;2.19;100.00;102753.94;5056393;28;20037;-81
2022/12/02 06:53:40;;;;;;;56.20;24.40;;;;;;;2.19;100.00;102764.34;5053993;28;20037;-80
2022/12/02 06:56:22;;;;;;;53.33;24.25;;;;;;;2.20;100.00;102750.53;5066660;28;20056;-82
2022/12/02 06:58:59;;;;;;;62.60;26.15;;;;;;;2.20;100.00;102745.34;5056133;28;20048;-81
2022/12/02 07:01:46;;;;;;;62.97;27.13;;;;;;;2.20;100.00;102760.94;5058055;28;20037;-80
2022/12/02 07:04:34;;;;;;;60.10;25.73;;;;;;;2.18;100.00;102757.34;5087570;28;20504;-81
2022/12/02 07:07:16;;;;;;;59.92;26.02;;;;;;;2.17;100.00;102752.03;5065811;28;20057;-80
2022/12/02 07:12:45;;;;;;;56.55;25.42;;;;;;;2.16;100.00;102771.06;4905461;29;20056;-80
2022/12/02 07:15:29;;;;;;;59.80;23.45;;;;;;;2.17;100.00;102765.03;4896862;29;20054;-80
2022/12/02 07:18:09;;;;;;;56.25;26.67;;;;;;;2.14;100.00;102771.84;4917085;29;20526;-80
2022/12/02 07:20:38;;;;;;;51.95;23.40;;;;;;;2.09;100.00;102777.53;4919153;29;20059;-80
2022/12/02 07:23:15;;;;;;;55.97;24.73;;;;;;;2.03;100.00;102782.31;4917088;29;20043;-80
2022/12/02 07:26:03;;;;;;;51.97;23.10;;;;;;;1.94;100.00;102772.16;4907589;28;20047;-80
2022/12/02 07:28:35;;;;;;;51.22;22.80;;;;;;;1.87;100.00;102775.13;4926739;28;20074;-80
2022/12/02 07:31:06;;;;;;;49.97;22.88;;;;;;;1.83;100.00;102784.41;4899652;29;20040;-80
2022/12/02 07:33:35;;;;;;;48.58;22.33;;;;;;;1.81;100.00;102796.41;4937970;28;20054;-80
2022/12/02 07:36:03;;;;;;;51.92;23.58;;;;;;;1.79;100.00;102800.59;4912635;29;20040;-79
2022/12/02 07:38:32;;;;;;;43.15;19.80;;;;;;;1.76;100.00;102792.59;4911459;28;20055;-79
2022/12/02 07:41:22;;;;;;;41.78;19.60;;;;;;;1.70;100.00;102808.66;4931122;29;20527;-79
2022/12/02 07:43:53;;;;;;;45.05;21.17;;;;;;;1.65;100.00;102799.63;4932595;29;20048;-79
2022/12/02 07:46:23;;;;;;;41.97;17.80;;;;;;;1.62;100.00;102798.50;4902631;29;20047;-79
2022/12/02 07:48:53;;;;;;;45.92;21.77;;;;;;;1.58;100.00;102802.59;4877563;29;20052;-81
2022/12/02 07:51:26;;;;;;;37.33;19.75;;;;;;;1.58;100.00;102810.38;4936639;29;20048;-79
2022/12/02 07:53:55;;;;;;;43.67;19.77;;;;;;;1.54;100.00;102804.06;4928125;29;20058;-80
2022/12/02 07:56:23;;;;;;;46.53;19.58;;;;;;;1.49;100.00;102804.53;4907936;29;20543;-79
2022/12/02 07:58:53;;;;;;;43.75;20.23;;;;;;;1.47;100.00;102804.41;4928923;29;20514;-80
2022/12/02 08:01:40;;;;;;;44.00;19.58;;;;;;;1.43;100.00;102807.59;4931189;28;20047;-79
2022/12/02 08:04:10;;;;;;;47.85;20.15;;;;;;;1.42;100.00;102812.66;4903637;29;20032;-79
2022/12/02 08:06:38;;;;;;;40.97;19.77;;;;;;;1.34;100.00;102817.31;4934218;29;20121;-78
2022/12/02 08:09:09;;;;;;;44.17;20.02;;;;;;;1.24;100.00;102807.94;4929324;29;20048;-79
2022/12/02 08:11:38;;;;;;;51.20;20.67;;;;;;;1.21;100.00;102815.53;4926531;28;20048;-80
2022/12/02 08:14:06;;;;;;;45.10;18.83;;;;;;;1.17;100.00;102826.47;4886256;29;20067;-81
2022/12/02 08:16:35;;;;;;;39.42;16.70;;;;;;;1.11;100.00;102826.94;4900278;29;20056;-79
2022/12/02 08:19:03;;;;;;;42.30;18.65;;;;;;;1.07;100.00;102821.41;4909795;29;20036;-79
2022/12/02 08:21:32;;;;;;;40.97;18.17;;;;;;;1.02;100.00;102817.56;4904654;29;20060;-81
2022/12/02 08:24:02;;;;;;;51.47;18.33;;;;;;;0.98;100.00;102824.22;4935283;29;20064;-79
2022/12/02 08:26:31;;;;;;;44.78;16.48;;;;;;;0.94;100.00;102820.50;4894764;29;20083;-79
2022/12/02 08:28:59;;;;;;;51.92;21.85;;;;;;;0.93;100.00;102823.00;4893982;29;20040;-79
2022/12/02 08:31:28;;;;;;;52.60;21.30;;;;;;;0.91;100.00;102827.19;4910214;29;20057;-79
2022/12/02 08:33:57;;;;;;;51.10;21.60;;;;;;;0.94;100.00;102819.59;4929151;29;20063;-80
2022/12/02 08:36:33;;;;;;;48.22;21.02;;;;;;;0.96;100.00;102818.94;4921792;29;20056;-79
2022/12/02 08:39:04;;;;;;;55.70;22.65;;;;;;;0.96;100.00;102834.50;4906421;29;20060;-79
2022/12/02 08:41:37;;;;;;;57.92;22.67;;;;;;;0.94;100.00;102819.59;4873420;29;20056;-80
2022/12/02 08:44:06;;;;;;;59.67;23.05;;;;;;;0.92;100.00;102826.38;4898561;29;20040;-79
2022/12/02 08:46:35;;;;;;;49.53;21.45;;;;;;;0.92;100.00;102826.38;4896407;29;20052;-79
2022/12/02 08:49:05;;;;;;;55.33;22.33;;;;;;;0.93;100.00;102823.00;4909394;29;20044;-79
2022/12/02 08:51:34;;;;;;;56.13;21.60;;;;;;;0.92;100.00;102826.38;4885007;29;20791;-79
2022/12/02 08:54:03;;;;;;;50.00;21.25;;;;;;;0.95;100.00;102821.41;4913067;29;20292;-80
2022/12/02 08:56:31;;;;;;;58.28;23.05;;;;;;;0.95;100.00;102832.69;4895026;29;20063;-80
2022/12/02 08:59:00;;;;;;;56.33;23.15;;;;;;;0.94;100.00;102824.78;4914466;29;20040;-79
2022/12/02 09:01:29;;;;;;;51.25;21.95;;;;;;;0.93;100.00;102833.38;4912095;29;20041;-79
2022/12/02 09:03:57;;;;;;;49.47;21.88;;;;;;;0.93;100.00;102829.09;4869833;29;20496;-80
2022/12/02 09:06:26;;;;;;;57.60;23.77;;;;;;;0.91;100.00;102830.66;4877008;29;20047;-79
2022/12/02 09:09:00;;;;;;;45.17;20.90;;;;;;;0.91;100.00;102833.25;4895544;29;20392;-79
2022/12/02 09:11:29;;;;;;;59.78;24.48;;;;;;;0.95;100.00;102837.00;4882507;29;20036;-79
2022/12/02 09:13:58;;;;;;;50.58;21.10;;;;;;;0.96;100.00;102836.19;4859387;29;20055;-79
2022/12/02 09:16:26;;;;;;;53.90;23.98;;;;;;;0.93;100.00;102841.16;4894896;29;20118;-79
2022/12/02 09:18:57;;;;;;;58.05;23.20;;;;;;;0.94;100.00;102836.06;4884527;29;20051;-80
2022/12/02 09:21:25;;;;;;;51.20;23.27;;;;;;;0.96;100.00;102841.38;4862529;29;20157;-80
2022/12/02 09:23:54;;;;;;;48.30;20.95;;;;;;;0.97;100.00;102836.31;4909398;29;20064;-79
2022/12/02 09:26:23;;;;;;;50.00;22.35;;;;;;;0.94;100.00;102836.06;4919537;29;20482;-80
2022/12/02 09:28:52;;;;;;;47.15;23.35;;;;;;;1.00;100.00;102839.91;4852950;29;20044;-80
2022/12/02 09:31:21;;;;;;;44.53;21.00;;;;;;;0.99;100.00;102841.63;4862649;29;20075;-80
2022/12/02 09:33:49;;;;;;;50.42;23.63;;;;;;;0.96;100.00;102829.31;4916467;29;20051;-79
2022/12/02 09:36:30;;;;;;;45.30;21.20;;;;;;;0.95;100.00;102845.69;4883362;29;20044;-80
2022/12/02 09:38:59;;;;;;;45.45;21.83;;;;;;;0.94;100.00;102838.66;4906432;29;20036;-81
2022/12/02 09:41:27;;;;;;;45.33;20.85;;;;;;;0.93;100.00;102834.28;4901825;29;20402;-80
2022/12/02 09:43:56;;;;;;;49.75;21.85;;;;;;;0.98;100.00;102826.81;4878300;29;20047;-80
2022/12/02 09:46:25;;;;;;;48.78;22.52;;;;;;;1.04;100.00;102831.56;4868253;29;20033;-80
2022/12/02 09:48:54;;;;;;;52.28;24.70;;;;;;;1.09;100.00;102832.81;4900049;29;20434;-79
2022/12/02 09:51:26;;;;;;;51.85;23.92;;;;;;;1.13;100.00;102840.03;4891083;29;20536;-80
2022/12/02 09:53:56;;;;;;;45.72;21.50;;;;;;;1.15;100.00;102831.59;4878273;29;20047;-79
2022/12/02 09:56:24;;;;;;;47.65;22.42;;;;;;;1.16;100.00;102825.56;4896357;29;20067;-80
2022/12/02 09:58:55;;;;;;;48.33;23.67;;;;;;;1.20;100.00;102825.81;4908038;28;20051;-80
2022/12/02 10:01:25;;;;;;;44.80;21.60;;;;;;;1.24;100.00;102827.84;4898333;29;20048;-80
2022/12/02 10:03:54;;;;;;;46.97;22.80;;;;;;;1.24;100.00;102827.84;4871360;29;20559;-81
2022/12/02 10:06:25;;;;;;;49.90;23.48;;;;;;;1.23;100.00;102823.41;4877520;29;20065;-80
2022/12/02 10:08:54;;;;;;;;;;;;;;;1.25;100.00;102827.03;4928161;28;20055;-80
2022/12/02 10:11:26;;;;;;;45.03;24.20;;;;;;;1.27;100.00;102825.47;4908659;29;19934;-80
2022/12/02 10:13:56;;;;;;;43.80;22.88;;;;;;;1.34;100.00;102830.28;4874169;29;22287;-80
2022/12/02 10:16:26;;;;;;;45.97;25.48;;;;;;;1.39;100.00;102830.66;4919637;29;20130;-80
2022/12/02 10:19:00;;;;;;;41.40;22.02;;;;;;;1.35;100.00;102830.41;4874559;29;20082;-80
2022/12/02 10:21:29;;;;;;;46.17;24.95;;;;;;;1.35;100.00;102830.41;4906820;29;20400;-81
2022/12/02 10:24:03;;;;;;;54.22;24.58;;;;;;;1.41;100.00;102834.25;4872328;29;20048;-80
2022/12/02 10:26:44;;;;;;;47.33;25.55;;;;;;;1.46;100.00;102828.59;4909511;29;20047;-80
2022/12/02 10:29:29;;;;;;;39.55;22.80;;;;;;;1.45;100.00;102837.16;4910962;29;20044;-80
2022/12/02 10:32:01;;;;;;;44.80;24.02;;;;;;;1.43;100.00;102828.38;4902330;29;20060;-81
2022/12/02 10:34:31;;;;;;;48.03;23.65;;;;;;;1.46;100.00;102827.72;4908184;29;20047;-81
2022/12/02 10:37:31;;;;;;;47.08;24.73;;;;;;;1.52;100.00;102830.75;4903180;29;20056;-82
2022/12/02 10:40:13;;;;;;;50.53;26.67;;;;;;;1.54;100.00;102826.56;4855905;29;20052;-83
2022/12/02 10:42:43;;;;;;;48.95;26.08;;;;;;;1.61;100.00;102830.47;4933868;29;20036;-82
2022/12/02 10:45:21;;;;;;;45.42;25.92;;;;;;;1.61;100.00;102830.47;4907277;29;20066;-82
2022/12/02 10:48:11;;;;;;;44.03;25.15;;;;;;;1.64;100.00;102829.00;4869445;29;20040;-81
2022/12/02 10:50:39;;;;;;;45.85;25.92;;;;;;;1.64;100.00;102833.31;4927510;29;20061;-81
2022/12/02 10:53:13;;;;;;;41.38;24.10;;;;;;;1.66;100.00;102831.72;4876832;29;20075;-81
2022/12/02 10:55:44;;;;;;;36.85;21.17;;;;;;;1.66;100.00;102834.31;4902155;29;20056;-81
2022/12/02 10:58:24;;;;;;;38.15;22.23;;;;;;;1.68;100.00;102830.13;4912781;29;20137;-81
2022/12/02 11:00:52;;;;;;;39.00;22.13;;;;;;;1.67;100.00;102823.13;4890201;29;20039;-81
2022/12/02 11:03:22;;;;;;;41.65;24.95;;;;;;;1.66;100.00;102822.22;4892751;29;20044;-81
2022/12/02 11:05:51;;;;;;;39.03;22.58;;;;;;;1.68;100.00;102830.13;4883962;29;20536;-81
2022/12/02 11:08:28;;;;;;;41.00;23.98;;;;;;;1.65;100.00;102815.22;4918917;29;20055;-81
2022/12/02 11:11:15;;;;;;;42.78;23.60;;;;;;;1.66;100.00;102819.59;4901927;29;20932;-81
2022/12/02 11:14:05;;;;;;;46.13;24.42;;;;;;;1.68;100.00;102804.13;4903815;29;20044;-81
2022/12/02 11:16:34;;;;;;;47.42;26.40;;;;;;;1.70;100.00;102802.53;4924857;29;20063;-81
2022/12/02 11:19:22;;;;;;;43.03;24.45;;;;;;;1.74;100.00;102802.00;4888986;29;20051;-82
2022/12/02 11:21:50;;;;;;;45.13;25.20;;;;;;;1.75;100.00;102807.28;4904720;29;20592;-79
2022/12/02 11:24:27;;;;;;;40.15;23.50;;;;;;;1.74;100.00;102800.28;4880009;29;20071;-81
2022/12/02 11:26:58;;;;;;;39.95;21.50;;;;;;;1.73;100.00;102800.16;4900263;29;20040;-81
2022/12/02 11:30:01;;;;;;;46.67;24.27;;;;;;;1.71;100.00;102796.56;4921564;29;20044;-81
2022/12/02 11:32:36;;;;;;;40.78;22.30;;;;;;;1.69;100.00;102791.25;4918416;29;20414;-81
2022/12/02 11:35:13;;;;;;;41.55;23.17;;;;;;;1.67;100.00;102798.03;4879687;29;20036;-81
2022/12/02 11:37:47;;;;;;;39.47;23.05;;;;;;;1.69;100.00;102798.16;4907044;29;20040;-81
2022/12/02 11:40:16;;;;;;;40.08;22.92;;;;;;;1.71;100.00;102804.34;4909318;29;20032;-82